Time;durP1;ratioP1;P1;durP2;ratioP2;P2;SDS_P1;SDS_P2;PMS_P1;PMS_P2;Temp;Humidity;BMP_temperature;BMP_pressure;BME280_temperature;BME280_humidity;BME280_pressure;Samples;Min_cycle;Max_cycle;Signal;HPM_P1;HPM_P2
2022/09/29 00:02:54;;;;;;;3.13;2.13;;;;;;;0.20;69.52;97666.53;6102924;29;20562;-68
2022/09/29 00:05:57;;;;;;;4.03;2.63;;;;;;;0.20;69.72;97670.88;6103055;29;20047;-68
2022/09/29 00:09:02;;;;;;;3.63;2.63;;;;;;;0.07;69.97;97672.72;6102551;29;20064;-68
2022/09/29 00:12:06;;;;;;;3.63;2.97;;;;;;;-0.03;70.38;97678.84;6102876;29;20069;-68
2022/09/29 00:15:07;;;;;;;3.45;2.60;;;;;;;0.04;70.31;97667.56;6102545;29;20534;-69
2022/09/29 00:18:10;;;;;;;2.40;2.20;;;;;;;-0.01;70.86;97669.34;6102862;29;20430;-68
2022/09/29 00:21:21;;;;;;;3.38;2.22;;;;;;;-0.06;71.31;97684.94;6102688;29;20052;-67
2022/09/29 00:24:22;;;;;;;2.58;2.35;;;;;;;-0.07;71.46;97683.19;6102288;29;20050;-69
2022/09/29 00:27:23;;;;;;;3.15;2.58;;;;;;;0.04;71.43;97690.00;6102574;29;20047;-68
2022/09/29 00:30:26;;;;;;;2.65;1.67;;;;;;;-0.05;71.91;97686.63;6102622;29;20054;-69
2022/09/29 00:33:30;;;;;;;5.68;2.60;;;;;;;-0.08;71.88;97686.66;6101253;29;20048;-69
2022/09/29 00:36:32;;;;;;;2.53;2.28;;;;;;;-0.21;72.49;97694.56;6102145;29;20446;-69
2022/09/29 00:39:36;;;;;;;3.22;2.28;;;;;;;-0.23;72.95;97686.78;6102297;29;20080;-69
2022/09/29 00:42:40;;;;;;;2.15;1.40;;;;;;;-0.21;73.20;97690.22;6102283;29;20047;-69
2022/09/29 00:45:47;;;;;;;2.70;1.75;;;;;;;-0.29;73.78;97692.88;6102552;29;20039;-68
2022/09/29 00:48:54;;;;;;;2.78;2.33;;;;;;;-0.18;73.37;97699.69;6102343;29;20052;-68
2022/09/29 00:52:14;;;;;;;3.75;2.42;;;;;;;-0.25;74.26;97698.91;6102027;29;20044;-68
2022/09/29 00:55:40;;;;;;;3.20;1.95;;;;;;;-0.25;73.97;97693.72;6102146;29;20535;-68
2022/09/29 00:58:57;;;;;;;3.08;2.40;;;;;;;-0.28;74.57;97693.75;6102137;29;20056;-69
2022/09/29 01:02:00;;;;;;;2.88;1.83;;;;;;;-0.37;74.96;97692.09;6102037;29;20059;-69
2022/09/29 01:05:06;;;;;;;3.08;2.30;;;;;;;-0.43;75.58;97686.13;6101778;29;20051;-68
2022/09/29 01:08:16;;;;;;;1.77;1.50;;;;;;;-0.44;75.67;97689.59;6101957;29;20048;-68
2022/09/29 01:11:20;;;;;;;2.33;1.95;;;;;;;-0.40;76.07;97691.25;6101807;29;20191;-68
2022/09/29 01:14:26;;;;;;;2.42;2.13;;;;;;;-0.31;75.51;97688.59;6101442;29;20072;-68
2022/09/29 01:17:29;;;;;;;2.67;1.92;;;;;;;-0.35;75.90;97686.91;6101526;29;20048;-69
2022/09/29 01:20:33;;;;;;;2.88;2.08;;;;;;;-0.46;75.73;97695.59;6101559;29;20052;-67
2022/09/29 01:23:56;;;;;;;2.10;1.75;;;;;;;-0.28;75.69;97693.75;6101776;29;20124;-67
2022/09/29 01:27:06;;;;;;;1.92;1.80;;;;;;;-0.29;75.51;97695.47;6101775;29;20186;-69
2022/09/29 01:30:10;;;;;;;3.20;2.20;;;;;;;-0.39;75.10;97695.56;6101328;29;20404;-68
2022/09/29 01:33:33;;;;;;;1.98;1.77;;;;;;;-0.35;75.58;97705.00;6101456;29;20043;-68
2022/09/29 01:37:01;;;;;;;2.65;1.73;;;;;;;-0.44;76.10;97718.88;6101838;29;20135;-68
2022/09/29 01:40:20;;;;;;;1.85;1.58;;;;;;;-0.44;76.11;97718.03;6101682;29;20075;-68
2022/09/29 01:43:35;;;;;;;2.10;1.90;;;;;;;-0.51;76.11;97717.19;6100968;29;20143;-68
2022/09/29 01:46:46;;;;;;;3.45;2.70;;;;;;;-0.51;75.80;97712.91;6101356;29;20052;-68
2022/09/29 01:49:58;;;;;;;3.13;2.20;;;;;;;-0.46;75.74;97711.13;6100478;29;20546;-68
2022/09/29 01:53:13;;;;;;;2.92;1.80;;;;;;;-0.51;75.90;97707.72;6101130;29;20044;-69
2022/09/29 01:56:25;;;;;;;1.92;1.50;;;;;;;-0.54;76.52;97702.59;6101244;29;20046;-66
2022/09/29 01:59:48;;;;;;;1.38;1.27;;;;;;;-0.42;76.49;97721.47;6100531;29;20048;-67
2022/09/29 02:02:52;;;;;;;2.63;2.10;;;;;;;-0.58;76.82;97707.78;6101116;29;20036;-67
2022/09/29 02:06:19;;;;;;;2.28;1.67;;;;;;;-0.52;76.88;97713.75;6100753;29;20048;-68
2022/09/29 02:09:26;;;;;;;2.33;1.45;;;;;;;-0.65;77.11;97704.41;6100575;29;20048;-67
2022/09/29 02:12:36;;;;;;;1.88;1.42;;;;;;;-0.64;77.17;97715.59;6101481;29;20059;-68
2022/09/29 02:15:44;;;;;;;4.55;1.98;;;;;;;-0.77;77.19;97709.63;6104027;29;20091;-66
2022/09/29 02:19:01;;;;;;;2.13;1.77;;;;;;;-0.68;77.92;97714.72;6105278;29;20050;-68
2022/09/29 02:22:02;;;;;;;2.83;2.08;;;;;;;-0.68;77.85;97714.72;6105502;29;20422;-67
2022/09/29 02:25:10;;;;;;;1.80;1.25;;;;;;;-0.72;78.52;97718.22;6105277;29;20044;-67
2022/09/29 02:28:16;;;;;;;2.83;1.85;;;;;;;-0.79;78.35;97716.53;6105105;29;20499;-67
2022/09/29 02:31:36;;;;;;;3.65;2.10;;;;;;;-0.71;78.22;97720.81;6105197;29;20067;-68
2022/09/29 02:34:44;;;;;;;1.65;1.55;;;;;;;-0.80;78.72;97714.81;6104821;29;20075;-70
2022/09/29 02:38:05;;;;;;;2.55;1.20;;;;;;;-0.72;79.78;97723.38;6104943;29;20044;-68
2022/09/29 02:41:25;;;;;;;2.63;2.20;;;;;;;-0.58;78.44;97718.13;6104671;29;20139;-69
2022/09/29 02:44:46;;;;;;;3.58;2.75;;;;;;;-0.58;79.45;97725.88;6104698;29;20036;-68
2022/09/29 02:48:10;;;;;;;3.30;2.00;;;;;;;-0.53;78.47;97724.97;6104585;29;20048;-67
2022/09/29 02:51:30;;;;;;;2.40;2.15;;;;;;;-0.53;78.59;97724.97;6104566;29;20048;-67
2022/09/29 02:54:47;;;;;;;2.17;1.73;;;;;;;-0.43;77.41;97727.47;6103965;29;20111;-68
2022/09/29 02:58:00;;;;;;;3.40;2.15;;;;;;;-0.48;78.47;97730.97;6104293;29;20056;-68
2022/09/29 03:01:04;;;;;;;4.28;2.60;;;;;;;-0.47;77.97;97729.25;6104795;29;20097;-68
2022/09/29 03:04:08;;;;;;;1.70;1.40;;;;;;;-0.34;78.18;97730.00;6103892;29;20083;-68
2022/09/29 03:07:12;;;;;;;2.67;1.60;;;;;;;-0.25;77.67;97735.13;6104367;29;20056;-67
2022/09/29 03:10:17;;;;;;;15.15;6.75;;;;;;;-0.34;77.69;97724.81;6104070;29;20190;-68
2022/09/29 03:13:18;;;;;;;4.25;2.60;;;;;;;-0.32;77.33;97723.09;6104096;29;20060;-67
2022/09/29 03:16:19;;;;;;;2.80;2.15;;;;;;;-0.31;77.04;97724.78;6103699;29;20066;-68
2022/09/29 03:19:22;;;;;;;2.65;2.05;;;;;;;-0.29;77.05;97741.16;6103930;29;20131;-68
2022/09/29 03:22:25;;;;;;;2.25;1.75;;;;;;;-0.19;76.50;97739.38;6103410;29;20044;-67
2022/09/29 03:25:27;;;;;;;3.00;1.48;;;;;;;-0.18;75.85;97741.94;6103840;29;20071;-68
2022/09/29 03:28:28;;;;;;;2.03;1.40;;;;;;;-0.22;75.48;97740.25;6103318;29;20100;-69
2022/09/29 03:31:35;;;;;;;2.58;2.08;;;;;;;-0.31;75.60;97745.47;6103553;29;20498;-68
2022/09/29 03:34:42;;;;;;;2.65;1.95;;;;;;;-0.36;76.04;97737.78;6103489;29;20577;-67
2022/09/29 03:37:43;;;;;;;3.05;2.10;;;;;;;-0.29;75.70;97744.59;6102164;29;20139;-68
2022/09/29 03:40:45;;;;;;;2.38;2.17;;;;;;;-0.38;76.46;97743.81;6103274;29;20079;-67
2022/09/29 03:43:47;;;;;;;3.67;1.80;;;;;;;-0.28;76.60;97753.25;6103576;29;20260;-67
2022/09/29 03:46:48;;;;;;;3.17;2.35;;;;;;;-0.30;76.50;97753.25;6102705;29;20052;-67
2022/09/29 03:49:54;;;;;;;2.95;2.25;;;;;;;-0.33;76.49;97752.41;6102534;29;20074;-67
2022/09/29 03:52:58;;;;;;;3.45;2.53;;;;;;;-0.30;76.49;97737.72;6102793;29;20044;-68
2022/09/29 03:56:00;;;;;;;3.85;2.88;;;;;;;-0.14;76.13;97743.63;6102974;29;20068;-68
2022/09/29 03:59:07;;;;;;;4.72;2.47;;;;;;;-0.17;76.08;97754.00;6103005;29;20131;-68
2022/09/29 04:02:11;;;;;;;3.08;2.10;;;;;;;-0.16;76.09;97763.47;6102643;29;20063;-68
2022/09/29 04:05:13;;;;;;;2.80;1.83;;;;;;;-0.17;76.67;97747.97;6102921;29;20139;-68
2022/09/29 04:08:15;;;;;;;3.30;2.70;;;;;;;-0.05;75.37;97743.56;6102651;29;20365;-68
2022/09/29 04:11:19;;;;;;;3.63;2.28;;;;;;;-0.09;75.27;97746.16;6102178;29;20068;-68
2022/09/29 04:14:21;;;;;;;2.65;2.05;;;;;;;-0.14;75.64;97748.81;6101939;29;20067;-68
2022/09/29 04:17:26;;;;;;;3.95;2.40;;;;;;;-0.13;76.07;97755.69;6102314;29;20056;-68
2022/09/29 04:20:29;;;;;;;2.25;1.67;;;;;;;0.07;75.15;97752.06;6102512;29;20048;-68
2022/09/29 04:23:31;;;;;;;2.85;2.42;;;;;;;0.07;75.61;97759.84;6102544;29;20044;-68
2022/09/29 04:26:35;;;;;;;3.30;2.42;;;;;;;0.05;74.90;97751.22;6102376;29;20519;-68
2022/09/29 04:29:39;;;;;;;2.17;1.60;;;;;;;0.22;74.66;97750.19;6102262;29;20162;-68
2022/09/29 04:32:40;;;;;;;3.13;2.33;;;;;;;0.12;74.96;97751.16;6101922;29;20528;-68
2022/09/29 04:35:42;;;;;;;3.45;2.47;;;;;;;0.20;74.85;97748.50;6101606;29;20430;-68
2022/09/29 04:38:44;;;;;;;6.45;4.18;;;;;;;0.27;74.29;97744.97;6101748;29;20058;-68
2022/09/29 04:41:48;;;;;;;3.95;2.30;;;;;;;0.31;73.15;97751.84;6102197;29;20142;-68
2022/09/29 04:44:49;;;;;;;5.18;2.80;;;;;;;0.18;74.60;97750.25;6102393;29;20063;-68
2022/09/29 04:47:54;;;;;;;2.22;1.65;;;;;;;0.37;73.83;97746.59;6101959;29;20052;-67
2022/09/29 04:50:55;;;;;;;3.13;2.17;;;;;;;0.32;73.76;97747.53;6101716;29;20052;-68
2022/09/29 04:53:59;;;;;;;2.40;2.20;;;;;;;0.32;74.70;97750.97;6101393;29;20458;-68
2022/09/29 04:57:03;;;;;;;2.30;1.83;;;;;;;0.36;74.78;97739.69;6101355;29;20048;-68
2022/09/29 05:00:09;;;;;;;2.30;1.95;;;;;;;0.54;74.18;97743.84;6101732;29;20043;-68
2022/09/29 05:03:10;;;;;;;2.15;1.83;;;;;;;0.59;73.75;97725.63;6101316;29;20060;-69
2022/09/29 05:06:14;;;;;;;2.95;1.95;;;;;;;0.66;74.09;97740.25;6101197;29;20135;-68
2022/09/29 05:09:18;;;;;;;3.55;2.38;;;;;;;0.69;72.96;97742.78;6101688;29;20123;-69
2022/09/29 05:12:20;;;;;;;3.40;2.33;;;;;;;0.63;72.96;97746.31;6100091;29;20076;-69
2022/09/29 05:15:21;;;;;;;2.53;2.33;;;;;;;0.56;73.38;97748.97;6100797;29;20426;-68
2022/09/29 05:18:26;;;;;;;3.10;2.50;;;;;;;0.57;73.50;97741.22;6101555;29;20039;-68
2022/09/29 05:21:28;;;;;;;3.95;2.53;;;;;;;0.47;74.35;97756.84;6101586;29;20050;-68
2022/09/29 05:24:29;;;;;;;2.83;2.35;;;;;;;0.71;73.91;97748.81;6101683;29;20040;-70
2022/09/29 05:27:30;;;;;;;2.45;2.25;;;;;;;0.70;73.63;97754.00;6101168;29;20565;-69
2022/09/29 05:30:32;;;;;;;1.42;1.30;;;;;;;0.81;73.63;97747.81;6101014;29;20521;-70
2022/09/29 05:33:37;;;;;;;2.75;1.95;;;;;;;0.79;73.56;97759.06;6101045;29;20048;-70
2022/09/29 05:36:38;;;;;;;2.20;1.75;;;;;;;0.97;73.50;97758.00;6100921;29;20099;-70
2022/09/29 05:39:46;;;;;;;2.05;1.33;;;;;;;1.00;72.61;97745.03;6101446;29;20048;-71
2022/09/29 05:42:53;;;;;;;1.90;1.73;;;;;;;0.95;72.09;97754.56;6101121;29;20063;-70
2022/09/29 05:45:59;;;;;;;2.10;1.60;;;;;;;0.95;72.00;97754.56;6099693;29;20438;-71
2022/09/29 05:49:03;;;;;;;3.58;2.03;;;;;;;0.93;71.12;97746.81;6106088;29;20048;-71
2022/09/29 05:52:05;;;;;;;4.35;2.83;;;;;;;0.73;71.61;97752.22;6105853;29;20051;-70
2022/09/29 05:55:10;;;;;;;3.42;2.88;;;;;;;0.79;71.95;97756.47;6106003;29;20048;-70
2022/09/29 05:58:15;;;;;;;4.57;2.20;;;;;;;0.75;72.87;97760.84;6105574;29;20039;-70
2022/09/29 06:01:24;;;;;;;3.45;2.05;;;;;;;0.83;72.09;97761.63;6105449;29;20107;-71
2022/09/29 06:04:27;;;;;;;3.78;2.25;;;;;;;0.70;72.12;97761.78;6105532;29;20418;-71
2022/09/29 06:07:28;;;;;;;2.63;1.65;;;;;;;0.63;72.00;97761.00;6105756;29;20052;-71
2022/09/29 06:10:31;;;;;;;3.47;2.55;;;;;;;0.51;72.82;97768.88;6105540;29;20067;-70
2022/09/29 06:13:45;;;;;;;2.72;1.70;;;;;;;0.49;73.25;97755.13;6104422;29;20131;-71
2022/09/29 06:16:49;;;;;;;;;;;;;;;0.62;72.82;97761.84;6104536;29;20047;-71
2022/09/29 06:19:53;;;;;;;4.00;1.65;;;;;;;0.49;72.71;97768.91;6105461;29;19922;-71
2022/09/29 06:22:55;;;;;;;2.30;2.10;;;;;;;0.36;73.13;97763.00;6105031;29;20052;-71
2022/09/29 06:26:00;;;;;;;3.08;2.45;;;;;;;0.39;73.98;97760.38;6104886;29;20146;-71
2022/09/29 06:29:03;;;;;;;2.65;1.63;;;;;;;0.43;74.06;97769.84;6104893;29;20185;-71
2022/09/29 06:32:07;;;;;;;2.63;2.20;;;;;;;0.52;74.38;97776.66;6104942;29;20052;-71
2022/09/29 06:38:31;;;;;;;2.55;1.60;;;;;;;0.46;72.99;97775.88;6104661;29;20056;-71
2022/09/29 06:41:34;;;;;;;4.47;2.50;;;;;;;0.41;73.58;97776.75;6104904;29;20048;-70
2022/09/29 06:44:38;;;;;;;1.52;1.35;;;;;;;0.53;73.45;97783.53;6105147;29;20403;-70
2022/09/29 06:47:39;;;;;;;2.45;2.05;;;;;;;0.56;72.99;97780.06;6104642;29;20438;-71
2022/09/29 06:50:44;;;;;;;2.50;2.30;;;;;;;0.48;73.42;97779.28;6104526;29;20048;-70
2022/09/29 06:53:46;;;;;;;2.47;2.25;;;;;;;0.44;73.50;97748.25;6104501;29;20063;-70
2022/09/29 06:56:48;;;;;;;3.17;2.28;;;;;;;0.66;73.43;97779.09;6103864;29;20454;-70
2022/09/29 06:59:50;;;;;;;3.75;2.72;;;;;;;0.71;72.56;97774.72;6103795;29;20040;-70
2022/09/29 07:02:51;;;;;;;3.50;2.65;;;;;;;0.73;73.06;97770.38;6104087;29;20059;-70
2022/09/29 07:05:55;;;;;;;2.10;1.75;;;;;;;0.82;72.67;97780.66;6104147;29;20055;-70
2022/09/29 07:08:58;;;;;;;1.27;1.17;;;;;;;0.96;73.25;97777.00;6104148;29;20232;-69
2022/09/29 07:11:59;;;;;;;1.73;1.63;;;;;;;1.01;72.41;97786.44;6104131;29;20541;-69
2022/09/29 07:15:03;;;;;;;3.05;2.20;;;;;;;0.94;72.98;97778.78;6104073;29;20379;-69
2022/09/29 07:18:05;;;;;;;2.78;1.90;;;;;;;0.95;73.54;97775.31;6103834;29;20048;-70
2022/09/29 07:21:16;;;;;;;3.20;2.30;;;;;;;1.07;72.41;97781.19;6103831;29;20100;-69
2022/09/29 07:24:18;;;;;;;2.53;2.33;;;;;;;1.06;72.49;97789.00;6103951;29;20063;-69
2022/09/29 07:27:23;;;;;;;1.88;1.73;;;;;;;0.93;73.66;97783.09;6103865;29;20044;-69
2022/09/29 07:30:30;;;;;;;2.80;2.50;;;;;;;1.03;73.82;97783.84;6103537;29;20051;-70
2022/09/29 07:33:31;;;;;;;3.40;2.17;;;;;;;1.05;73.67;97780.38;6102623;29;20096;-70
2022/09/29 07:36:37;;;;;;;2.50;2.30;;;;;;;1.19;73.61;97785.38;6103558;29;20044;-69
2022/09/29 07:39:41;;;;;;;1.80;1.38;;;;;;;1.32;72.08;97786.06;6103197;29;20047;-70
2022/09/29 07:42:45;;;;;;;2.70;2.22;;;;;;;1.28;71.78;97782.66;6102905;29;20216;-70
2022/09/29 07:45:50;;;;;;;2.03;1.88;;;;;;;1.12;72.70;97783.72;6102978;29;20056;-70
2022/09/29 07:48:53;;;;;;;1.25;0.93;;;;;;;1.33;71.70;97790.34;6102183;29;20533;-70
2022/09/29 07:51:55;;;;;;;1.73;1.60;;;;;;;1.16;72.27;97790.59;6102019;29;20048;-69
2022/09/29 07:55:02;;;;;;;2.42;1.80;;;;;;;1.13;72.78;97790.63;6102561;29;20044;-70
2022/09/29 07:58:07;;;;;;;2.88;1.80;;;;;;;1.23;72.63;97787.03;6102932;29;20059;-70
2022/09/29 08:01:17;;;;;;;2.35;2.00;;;;;;;1.31;72.69;97787.78;6102775;29;20040;-70
2022/09/29 08:04:22;;;;;;;3.33;2.30;;;;;;;1.40;71.79;97798.94;6102577;29;20044;-70
2022/09/29 08:07:23;;;;;;;1.38;1.23;;;;;;;1.51;71.25;97789.25;6102637;29;20056;-70
2022/09/29 08:10:27;;;;;;;2.47;1.85;;;;;;;1.31;71.46;97790.38;6102106;29;20071;-70
2022/09/29 08:13:32;;;;;;;2.38;1.38;;;;;;;1.40;72.28;97793.75;6102469;29;20048;-70
2022/09/29 08:16:35;;;;;;;2.03;1.17;;;;;;;1.61;71.68;97792.56;6102217;29;20052;-70
2022/09/29 08:19:36;;;;;;;2.90;2.00;;;;;;;1.39;70.89;97784.22;6102658;29;20854;-69
2022/09/29 08:22:40;;;;;;;4.90;2.20;;;;;;;1.42;72.07;97776.44;6102484;29;20044;-70
2022/09/29 08:25:45;;;;;;;2.50;2.03;;;;;;;1.37;71.80;97783.41;6101887;29;20527;-70
2022/09/29 08:28:49;;;;;;;1.80;1.35;;;;;;;1.54;71.14;97786.63;6102242;29;20506;-70
2022/09/29 08:31:55;;;;;;;4.68;2.13;;;;;;;1.33;71.45;97793.81;6102464;29;20056;-70
2022/09/29 08:35:01;;;;;;;2.30;1.60;;;;;;;1.39;72.01;97784.22;6102525;29;20059;-70
2022/09/29 08:38:04;;;;;;;2.13;1.90;;;;;;;1.53;71.00;97790.09;6102079;29;20048;-69
2022/09/29 08:41:32;;;;;;;2.78;2.10;;;;;;;1.56;70.90;97788.31;6102062;29;20399;-70
2022/09/29 08:44:50;;;;;;;1.58;1.30;;;;;;;1.46;71.01;97788.47;6101890;29;20047;-70
2022/09/29 08:48:04;;;;;;;4.32;2.80;;;;;;;1.29;72.33;97791.28;6101976;29;20055;-69
2022/09/29 08:51:20;;;;;;;2.75;2.10;;;;;;;1.55;72.31;97785.72;6102601;29;20430;-70
2022/09/29 08:54:36;;;;;;;2.53;1.90;;;;;;;1.60;72.48;97790.88;6102614;29;20066;-69
2022/09/29 08:57:41;;;;;;;2.70;2.00;;;;;;;1.62;71.47;97784.78;6101611;29;20506;-69
2022/09/29 09:01:03;;;;;;;2.75;1.98;;;;;;;1.55;72.18;97784.00;6101696;29;20048;-69
2022/09/29 09:04:28;;;;;;;1.77;1.50;;;;;;;1.82;71.48;97783.63;6101561;29;20040;-69
2022/09/29 09:07:38;;;;;;;2.88;1.83;;;;;;;1.70;69.92;97787.25;6101652;29;20052;-69
2022/09/29 09:11:00;;;;;;;3.78;1.88;;;;;;;1.48;71.45;97791.91;6101593;29;20626;-69
2022/09/29 09:14:06;;;;;;;2.65;1.85;;;;;;;1.51;72.09;97782.34;6101302;29;20044;-69
2022/09/29 09:17:32;;;;;;;1.60;1.13;;;;;;;1.79;71.32;97787.13;6101769;29;20047;-71
2022/09/29 09:20:43;;;;;;;3.10;2.28;;;;;;;1.44;71.06;97785.03;6101233;29;20044;-71
2022/09/29 09:24:00;;;;;;;2.38;1.67;;;;;;;1.45;71.53;97786.75;6101319;29;20052;-71
2022/09/29 09:27:11;;;;;;;2.70;1.83;;;;;;;1.52;72.22;97778.00;6101572;29;20048;-71
2022/09/29 09:30:17;;;;;;;5.60;3.50;;;;;;;1.57;73.03;97783.97;6101378;29;20048;-70
2022/09/29 09:33:42;;;;;;;7.90;3.83;;;;;;;1.73;73.54;97776.84;6101483;29;20052;-69
2022/09/29 09:36:59;;;;;;;3.35;2.30;;;;;;;1.89;73.47;97777.44;6101065;29;20055;-69
2022/09/29 09:40:13;;;;;;;1.52;1.33;;;;;;;1.85;72.72;97775.78;6101217;29;20059;-69
2022/09/29 09:43:21;;;;;;;3.58;2.05;;;;;;;1.76;72.46;97777.66;6101228;29;20067;-70
2022/09/29 09:46:38;;;;;;;5.22;1.48;;;;;;;1.89;71.63;97785.22;6101251;29;20044;-69
2022/09/29 09:49:50;;;;;;;2.30;1.75;;;;;;;1.64;72.09;97783.00;6101133;29;20055;-68
2022/09/29 09:53:14;;;;;;;2.78;1.98;;;;;;;1.67;72.79;97779.50;6101049;29;20044;-69
2022/09/29 09:56:25;;;;;;;;;;;;;;;1.91;71.64;97775.69;6094266;29;20067;-68
2022/09/29 09:59:46;;;;;;;4.40;2.17;;;;;;;1.74;71.69;97771.63;6101354;29;20400;-69
2022/09/29 10:02:54;;;;;;;3.15;2.13;;;;;;;1.56;72.34;97769.31;6101026;29;20139;-69
2022/09/29 10:05:56;;;;;;;3.05;2.00;;;;;;;1.70;72.81;97772.56;6100706;29;20048;-69
2022/09/29 10:09:04;;;;;;;3.53;2.20;;;;;;;1.76;72.39;97772.44;6100968;29;20055;-69
2022/09/29 10:12:13;;;;;;;4.00;2.67;;;;;;;1.70;72.40;97777.75;6100799;29;20135;-68
2022/09/29 10:15:24;;;;;;;4.07;2.35;;;;;;;1.68;72.95;97774.31;6100495;29;20055;-69
2022/09/29 10:18:35;;;;;;;4.60;2.45;;;;;;;1.90;71.07;97768.78;6099848;29;20056;-69
2022/09/29 10:21:41;;;;;;;2.90;2.58;;;;;;;1.68;70.62;97769.13;6100924;29;20052;-68
2022/09/29 10:24:45;;;;;;;2.70;2.20;;;;;;;1.44;70.79;97764.28;6100923;29;20052;-68
2022/09/29 10:27:56;;;;;;;3.28;2.15;;;;;;;1.24;72.23;97762.81;6100628;29;20052;-69
2022/09/29 10:31:00;;;;;;;4.15;2.22;;;;;;;1.29;71.88;97771.41;6100535;29;20476;-70
2022/09/29 10:34:20;;;;;;;3.83;1.92;;;;;;;1.27;73.13;97775.72;6103146;29;20048;-70
2022/09/29 10:37:32;;;;;;;3.15;2.80;;;;;;;1.30;72.52;97765.34;6104764;29;20040;-70
2022/09/29 10:40:34;;;;;;;3.10;2.53;;;;;;;1.19;72.99;97772.41;6104920;29;20539;-70
2022/09/29 10:43:41;;;;;;;5.72;3.70;;;;;;;1.25;73.45;97772.31;6104695;29;20132;-70
2022/09/29 10:46:53;;;;;;;4.65;3.17;;;;;;;1.35;73.80;97773.03;6104394;29;20072;-70
2022/09/29 10:50:19;;;;;;;3.70;2.95;;;;;;;1.54;72.04;97771.91;6104180;29;20048;-70
2022/09/29 10:53:30;;;;;;;3.53;2.58;;;;;;;1.40;72.54;97773.00;6104589;29;20138;-70
2022/09/29 10:56:36;;;;;;;4.53;2.97;;;;;;;1.37;73.22;97767.84;6104619;29;20040;-70
2022/09/29 10:59:49;;;;;;;4.45;2.38;;;;;;;1.51;73.38;97774.56;6104589;29;20048;-70
2022/09/29 11:03:03;;;;;;;3.55;2.33;;;;;;;1.44;73.71;97770.31;6104550;29;20056;-70
2022/09/29 11:06:12;;;;;;;4.05;2.55;;;;;;;1.49;73.83;97768.53;6103397;29;20537;-70
2022/09/29 11:09:22;;;;;;;2.72;2.22;;;;;;;1.41;73.61;97764.31;6104301;29;20043;-70
2022/09/29 11:12:26;;;;;;;3.70;2.58;;;;;;;1.37;73.77;97765.25;6104127;29;20180;-70
2022/09/29 11:15:39;;;;;;;3.47;2.70;;;;;;;1.43;73.35;97767.75;6103949;29;20435;-71
2022/09/29 11:18:48;;;;;;;4.93;3.78;;;;;;;1.25;73.75;97764.56;6103972;29;20040;-70
2022/09/29 11:22:11;;;;;;;3.80;2.63;;;;;;;1.11;75.20;97767.31;6104055;29;20048;-71
2022/09/29 11:25:18;;;;;;;3.80;3.10;;;;;;;1.18;75.33;97768.09;6104222;29;20561;-71
2022/09/29 11:28:44;;;;;;;3.17;2.28;;;;;;;1.43;75.54;97772.94;6103906;29;20070;-71
2022/09/29 11:31:57;;;;;;;3.30;2.42;;;;;;;1.44;72.92;97764.28;6103821;29;20410;-70
2022/09/29 11:35:35;;;;;;;3.40;2.60;;;;;;;1.27;73.50;97762.78;6103570;29;20446;-70
2022/09/29 11:38:57;;;;;;;3.58;2.33;;;;;;;1.03;74.05;97769.16;6103680;29;20055;-70
2022/09/29 11:42:08;;;;;;;3.15;2.40;;;;;;;1.20;74.01;97770.69;6103442;29;20040;-70
2022/09/29 11:45:17;;;;;;;3.55;2.90;;;;;;;1.05;74.77;97769.16;6103396;29;20051;-70
2022/09/29 11:48:45;;;;;;;4.30;2.72;;;;;;;0.98;75.19;97770.09;6103329;29;20127;-70
2022/09/29 11:51:57;;;;;;;3.53;2.83;;;;;;;1.02;75.49;97767.44;6103349;29;20056;-71
2022/09/29 11:55:44;;;;;;;4.13;3.13;;;;;;;1.24;74.78;97756.78;6103618;29;20513;-71
2022/09/29 11:58:58;;;;;;;3.58;2.80;;;;;;;1.06;74.80;97763.94;6103194;29;20096;-71
2022/09/29 12:02:08;;;;;;;3.88;2.83;;;;;;;0.92;75.41;97765.84;6103118;29;20044;-71
2022/09/29 12:05:25;;;;;;;4.28;3.15;;;;;;;0.84;75.66;97760.75;6102908;29;20047;-70
2022/09/29 12:09:25;;;;;;;4.00;2.75;;;;;;;0.74;76.57;97755.72;6101233;29;20059;-70
2022/09/29 12:12:54;;;;;;;2.72;2.22;;;;;;;0.90;76.14;97752.88;6060814;29;20211;-71
2022/09/29 12:16:03;;;;;;;4.47;2.75;;;;;;;0.87;75.56;97744.31;6102346;29;20063;-70
2022/09/29 12:19:16;;;;;;;2.58;1.83;;;;;;;0.88;76.56;97744.28;6102573;29;20048;-70
2022/09/29 12:22:21;;;;;;;2.70;2.08;;;;;;;1.05;74.84;97751.00;6102306;29;20052;-71
2022/09/29 12:25:30;;;;;;;3.80;2.92;;;;;;;0.72;75.55;97750.53;6102380;29;20510;-71
2022/09/29 12:28:59;;;;;;;3.35;2.75;;;;;;;0.67;76.48;97745.38;6102080;29;20052;-71
2022/09/29 12:32:08;;;;;;;4.60;2.92;;;;;;;0.68;76.91;97743.69;6097742;29;20048;-71
2022/09/29 12:35:38;;;;;;;4.30;3.20;;;;;;;0.64;77.50;97744.56;6102103;29;20071;-72
2022/09/29 12:38:44;;;;;;;4.03;2.72;;;;;;;0.67;77.84;97745.38;6085279;29;20104;-72
2022/09/29 12:41:54;;;;;;;4.53;3.20;;;;;;;0.69;77.71;97745.38;6101681;29;20056;-72
2022/09/29 12:45:07;;;;;;;4.32;2.60;;;;;;;0.68;78.17;97751.47;6102545;29;20044;-71
2022/09/29 12:48:29;;;;;;;4.78;3.60;;;;;;;0.77;77.95;97751.34;6102956;29;20048;-71
2022/09/29 12:51:43;;;;;;;4.13;3.03;;;;;;;0.72;77.82;97747.94;6102577;29;20412;-71
2022/09/29 12:54:56;;;;;;;3.88;2.83;;;;;;;0.57;77.82;97748.13;6101843;29;20395;-71
2022/09/29 12:58:09;;;;;;;4.63;3.05;;;;;;;0.50;77.95;97749.06;6102024;29;20047;-71
2022/09/29 13:01:23;;;;;;;3.42;2.13;;;;;;;0.57;78.69;97748.97;6101280;29;20055;-72
2022/09/29 13:04:33;;;;;;;4.20;3.10;;;;;;;0.58;78.08;97750.69;6102122;29;20196;-71
2022/09/29 13:07:43;;;;;;;4.25;2.83;;;;;;;0.50;78.69;97741.28;6102078;29;20205;-72
2022/09/29 13:11:01;;;;;;;5.45;3.47;;;;;;;0.44;78.85;97756.00;6101575;29;20040;-72
2022/09/29 13:14:33;;;;;;;3.83;2.72;;;;;;;0.51;78.40;97751.66;6101676;29;20059;-72
2022/09/29 13:17:40;;;;;;;5.85;3.15;;;;;;;0.52;78.64;97755.09;6101704;29;20048;-72
2022/09/29 13:21:16;;;;;;;4.15;2.92;;;;;;;0.55;78.42;97750.72;6101622;29;20052;-73
2022/09/29 13:24:49;;;;;;;4.57;3.17;;;;;;;0.48;78.15;97743.88;6101463;29;20059;-72
2022/09/29 13:27:57;;;;;;;3.10;2.75;;;;;;;0.41;78.67;97753.47;6088844;29;20056;-73
2022/09/29 13:31:06;;;;;;;3.42;2.85;;;;;;;0.48;78.15;97759.41;6101355;29;20048;-72
2022/09/29 13:34:28;;;;;;;2.92;2.50;;;;;;;0.36;79.10;97750.06;6101388;29;20052;-73
2022/09/29 13:37:45;;;;;;;2.80;2.17;;;;;;;0.51;78.51;97748.16;6101416;29;20056;-72
2022/09/29 13:41:15;;;;;;;4.50;2.50;;;;;;;0.55;78.29;97750.72;6101400;29;20044;-73
2022/09/29 13:44:29;;;;;;;3.90;2.80;;;;;;;0.54;78.02;97753.31;6100468;29;20056;-72
2022/09/29 13:47:33;;;;;;;4.60;3.67;;;;;;;0.40;78.55;97756.94;6099414;29;20047;-72
2022/09/29 13:50:50;;;;;;;4.38;3.10;;;;;;;0.39;79.09;97759.53;6101192;29;20056;-72
2022/09/29 13:54:13;;;;;;;4.25;2.92;;;;;;;0.39;79.28;97760.38;6100813;29;20044;-73
2022/09/29 13:57:23;;;;;;;4.28;3.00;;;;;;;0.39;79.33;97760.38;6101215;29;20514;-71
2022/09/29 14:00:30;;;;;;;3.70;3.00;;;;;;;0.51;78.32;97758.53;6101412;29;20051;-73
2022/09/29 14:03:36;;;;;;;5.22;3.33;;;;;;;0.55;78.68;97749.88;6101269;29;20040;-73
2022/09/29 14:06:46;;;;;;;5.47;3.03;;;;;;;0.52;78.18;97757.69;6101270;29;20044;-74
2022/09/29 14:09:48;;;;;;;3.17;2.70;;;;;;;0.35;79.23;97757.84;6104726;29;20474;-72
2022/09/29 14:13:21;;;;;;;4.00;3.03;;;;;;;0.31;78.91;97741.50;6105478;29;20051;-71
2022/09/29 14:16:56;;;;;;;4.93;3.13;;;;;;;0.46;79.17;97765.50;6105162;29;20056;-73
2022/09/29 14:20:16;;;;;;;5.30;3.28;;;;;;;0.43;79.41;97769.00;6105114;29;20135;-72
2022/09/29 14:23:48;;;;;;;5.03;3.58;;;;;;;0.61;78.82;97765.34;6105208;29;20395;-72
2022/09/29 14:26:53;;;;;;;5.38;3.35;;;;;;;0.42;79.11;97759.47;6104715;29;20055;-72
2022/09/29 14:30:20;;;;;;;4.80;3.22;;;;;;;0.40;79.02;97766.44;6105262;29;20499;-72
2022/09/29 14:33:29;;;;;;;4.55;3.33;;;;;;;0.41;79.63;97758.63;6105173;29;20044;-71
2022/09/29 14:36:34;;;;;;;4.57;3.30;;;;;;;0.42;79.70;97765.50;6104760;29;20088;-71
2022/09/29 14:40:26;;;;;;;4.70;3.42;;;;;;;0.44;79.11;97758.59;6104817;29;20052;-71
2022/09/29 14:43:12;;;;;;;5.22;3.75;;;;;;;0.45;79.60;97772.41;6104868;29;20052;-72
2022/09/29 14:54:16;;;;;;;5.80;3.25;;;;;;;0.33;79.81;97773.38;6104577;29;20131;-73
2022/09/29 14:57:33;;;;;;;5.28;3.78;;;;;;;0.33;79.55;97769.94;6103869;29;20052;-73
2022/09/29 15:00:59;;;;;;;5.28;3.55;;;;;;;0.48;79.20;97767.19;6104339;29;20392;-72
2022/09/29 15:04:14;;;;;;;4.72;3.60;;;;;;;0.37;78.91;97767.31;6104433;29;20403;-71
2022/09/29 15:07:22;;;;;;;4.13;3.00;;;;;;;0.25;78.77;97762.25;6103802;29;20388;-72
2022/09/29 15:10:30;;;;;;;3.85;2.88;;;;;;;0.23;79.35;97769.19;6103968;29;20404;-71
2022/09/29 15:13:36;;;;;;;5.65;3.60;;;;;;;0.26;79.78;97758.81;6103731;29;20067;-71